createdAt,value
2018-09-05T00:00:20.441Z,0.00
2018-09-05T00:01:20.455Z,0.00
2018-09-05T00:02:20.440Z,0.00
2018-09-05T00:03:20.408Z,0.00
2018-09-05T00:04:20.396Z,0.00
2018-09-05T00:05:20.385Z,0.00
2018-09-05T00:06:20.372Z,0.00
2018-09-05T00:07:20.384Z,0.00
2018-09-05T00:08:20.351Z,0.00
2018-09-05T00:09:20.343Z,0.00
2018-09-05T00:10:20.329Z,0.00
2018-09-05T00:11:20.317Z,0.00
2018-09-05T00:12:20.332Z,0.00
2018-09-05T00:13:20.296Z,0.00
2018-09-05T00:14:20.290Z,0.00
2018-09-05T00:15:20.272Z,0.00
2018-09-05T00:16:20.260Z,0.00
2018-09-05T00:17:20.283Z,0.00
2018-09-05T00:18:20.240Z,0.00
2018-09-05T00:19:20.226Z,0.00
2018-09-05T00:20:20.220Z,0.00
2018-09-05T00:21:20.204Z,0.00
2018-09-05T00:22:20.224Z,0.00
2018-09-05T00:23:20.183Z,0.00
2018-09-05T00:24:20.170Z,0.00
2018-09-05T00:25:20.159Z,0.00
2018-09-05T00:26:20.149Z,0.00
2018-09-05T00:27:20.159Z,0.00
2018-09-05T00:28:20.126Z,0.00
2018-09-05T00:29:20.137Z,0.00
2018-09-05T00:30:20.103Z,0.00
2018-09-05T00:31:20.093Z,0.00
2018-09-05T00:32:20.082Z,0.00
2018-09-05T00:33:20.083Z,0.00
2018-09-05T00:34:20.091Z,0.00
2018-09-05T00:35:20.048Z,0.00
2018-09-05T00:36:20.036Z,0.00
2018-09-05T00:37:20.025Z,0.00
2018-09-05T00:38:20.013Z,0.00
2018-09-05T00:39:20.023Z,0.00
2018-09-05T00:40:20.014Z,0.00
2018-09-05T00:41:19.980Z,0.00
2018-09-05T00:42:19.968Z,0.00
2018-09-05T00:43:19.959Z,0.00
2018-09-05T00:44:19.950Z,0.00
2018-09-05T00:45:19.956Z,0.00
2018-09-05T00:46:19.924Z,0.00
2018-09-05T00:47:19.912Z,0.00
2018-09-05T00:48:19.925Z,0.00
2018-09-05T00:49:19.889Z,0.00
2018-09-05T00:50:19.901Z,0.00
2018-09-05T00:51:19.868Z,0.00
2018-09-05T00:52:19.857Z,0.00
2018-09-05T00:53:19.844Z,0.00
2018-09-05T00:54:19.834Z,0.00
2018-09-05T00:55:19.844Z,0.00
2018-09-05T00:56:19.812Z,0.00
2018-09-05T00:57:19.800Z,0.00
2018-09-05T00:58:19.790Z,0.00
2018-09-05T00:59:19.778Z,0.00
2018-09-05T01:00:19.802Z,0.00
2018-09-05T01:01:19.755Z,0.00
2018-09-05T01:02:19.743Z,0.00
2018-09-05T01:03:19.732Z,0.00
2018-09-05T01:04:19.722Z,0.00
2018-09-05T01:05:19.730Z,0.00
2018-09-05T01:06:19.701Z,0.00
2018-09-05T01:07:19.688Z,0.00
2018-09-05T01:08:19.678Z,0.00
2018-09-05T01:09:19.669Z,0.00
2018-09-05T01:10:19.678Z,0.00
2018-09-05T01:11:19.648Z,0.00
2018-09-05T01:12:19.674Z,0.00
2018-09-05T01:13:19.625Z,0.00
2018-09-05T01:14:19.610Z,0.00
2018-09-05T01:15:19.598Z,0.00
2018-09-05T01:16:19.586Z,0.00
2018-09-05T01:17:19.614Z,0.00
2018-09-05T01:18:19.568Z,0.00
2018-09-05T01:19:19.553Z,0.00
2018-09-05T01:20:19.542Z,0.00
2018-09-05T01:21:19.529Z,0.00
2018-09-05T01:22:19.546Z,0.00
2018-09-05T01:23:19.509Z,0.00
2018-09-05T01:24:19.511Z,0.00
2018-09-05T01:25:19.485Z,0.00
2018-09-05T01:26:19.474Z,0.00
2018-09-05T01:27:19.503Z,0.00
2018-09-05T01:28:19.452Z,0.00
2018-09-05T01:29:19.441Z,0.00
2018-09-05T01:30:19.433Z,0.00
2018-09-05T01:31:19.417Z,0.00
2018-09-05T01:32:19.429Z,0.00
2018-09-05T01:33:19.394Z,0.00
2018-09-05T01:34:19.384Z,0.00
2018-09-05T01:35:19.372Z,0.00
2018-09-05T01:36:19.383Z,0.00
2018-09-05T01:37:19.351Z,0.00
2018-09-05T01:38:19.357Z,0.00
2018-09-05T01:39:19.332Z,0.00
2018-09-05T01:40:19.339Z,0.00
2018-09-05T01:41:19.304Z,0.00
2018-09-05T01:42:19.293Z,0.00
2018-09-05T01:43:19.303Z,0.00
2018-09-05T01:44:19.271Z,0.00
2018-09-05T01:45:19.260Z,0.00
2018-09-05T01:46:19.260Z,0.00
2018-09-05T01:47:19.259Z,0.00
2018-09-05T01:48:19.225Z,0.00
2018-09-05T01:49:19.215Z,0.00
2018-09-05T01:50:19.203Z,0.00
2018-09-05T01:51:19.213Z,0.00
2018-09-05T01:52:19.182Z,0.00
2018-09-05T01:53:19.168Z,0.00
2018-09-05T01:54:19.158Z,0.00
2018-09-05T01:55:19.146Z,0.00
2018-09-05T01:56:19.155Z,0.00
2018-09-05T01:57:19.145Z,0.00
2018-09-05T01:58:19.112Z,0.00
2018-09-05T01:59:19.102Z,0.00
2018-09-05T02:00:19.090Z,0.00
2018-09-05T02:01:19.078Z,0.00
2018-09-05T02:02:19.093Z,0.00
2018-09-05T02:03:19.055Z,0.00
2018-09-05T02:04:19.045Z,0.00
2018-09-05T02:05:19.058Z,0.00
2018-09-05T02:06:19.044Z,0.00
2018-09-05T02:07:19.010Z,0.00
2018-09-05T02:08:19.007Z,0.00
2018-09-05T02:09:18.988Z,0.00
2018-09-05T02:10:18.978Z,0.00
2018-09-05T02:11:18.995Z,0.00
2018-09-05T02:12:18.959Z,0.00
2018-09-05T02:13:18.942Z,0.00
2018-09-05T02:14:18.933Z,0.00
2018-09-05T02:15:18.920Z,0.00
2018-09-05T02:16:18.931Z,0.00
2018-09-05T02:17:18.899Z,0.00
2018-09-05T02:18:18.885Z,0.00
2018-09-05T02:19:18.875Z,0.00
2018-09-05T02:20:18.862Z,0.00
2018-09-05T02:21:18.873Z,0.00
2018-09-05T02:22:18.841Z,0.00
2018-09-05T02:23:18.829Z,0.00
2018-09-05T02:24:18.818Z,0.00
2018-09-05T02:25:18.806Z,0.00
2018-09-05T02:26:18.816Z,0.00
2018-09-05T02:27:18.784Z,0.00
2018-09-05T02:28:18.789Z,0.00
2018-09-05T02:29:18.762Z,0.00
2018-09-05T02:30:18.754Z,0.00
2018-09-05T02:31:18.767Z,0.00
2018-09-05T02:32:18.726Z,0.00
2018-09-05T02:33:18.744Z,0.00
2018-09-05T02:34:18.704Z,0.00
2018-09-05T02:35:18.697Z,0.00
2018-09-05T02:36:18.681Z,0.00
2018-09-05T02:37:18.691Z,0.00
2018-09-05T02:38:18.659Z,0.00
2018-09-05T02:39:18.670Z,0.00
2018-09-05T02:40:18.661Z,0.00
2018-09-05T02:41:18.629Z,0.00
2018-09-05T02:42:18.615Z,0.00
2018-09-05T02:43:18.609Z,0.00
2018-09-05T02:44:18.622Z,0.00
2018-09-05T02:45:18.582Z,0.00
2018-09-05T02:46:18.569Z,0.00
2018-09-05T02:47:18.558Z,0.00
2018-09-05T02:48:18.546Z,0.00
2018-09-05T02:49:18.562Z,0.00
2018-09-05T02:50:18.526Z,0.00
2018-09-05T02:51:18.514Z,0.00
2018-09-05T02:52:18.501Z,0.00
2018-09-05T02:53:18.491Z,0.00
2018-09-05T02:54:18.513Z,0.00
2018-09-05T02:55:18.469Z,0.00
2018-09-05T02:56:18.461Z,0.00
2018-09-05T02:57:18.444Z,0.00
2018-09-05T02:58:18.433Z,0.00
2018-09-05T02:59:18.443Z,0.00
2018-09-05T03:00:18.413Z,0.00
2018-09-05T03:01:18.422Z,0.00
2018-09-05T03:02:18.411Z,0.00
2018-09-05T03:03:18.376Z,0.00
2018-09-05T03:04:18.365Z,0.00
2018-09-05T03:05:18.353Z,0.00
2018-09-05T03:06:18.342Z,0.00
2018-09-05T03:07:18.361Z,0.00
2018-09-05T03:08:18.335Z,0.00
2018-09-05T03:09:18.317Z,0.00
2018-09-05T03:10:18.298Z,0.00
2018-09-05T03:11:18.286Z,0.00
2018-09-05T03:12:18.300Z,0.00
2018-09-05T03:13:18.266Z,0.00
2018-09-05T03:14:18.256Z,0.00
2018-09-05T03:15:18.262Z,0.00
2018-09-05T03:16:18.230Z,0.00
2018-09-05T03:17:18.219Z,0.00
2018-09-05T03:18:18.207Z,0.00
2018-09-05T03:19:18.195Z,0.00
2018-09-05T03:20:18.206Z,0.00
2018-09-05T03:21:18.173Z,0.00
2018-09-05T03:22:18.166Z,0.00
2018-09-05T03:23:18.151Z,0.00
2018-09-05T03:24:18.160Z,0.00
2018-09-05T03:25:18.127Z,0.00
2018-09-05T03:26:18.117Z,0.00
2018-09-05T03:27:18.105Z,0.00
2018-09-05T03:28:18.094Z,0.00
2018-09-05T03:29:18.102Z,0.00
2018-09-05T03:30:18.078Z,0.00
2018-09-05T03:31:18.085Z,0.00
2018-09-05T03:32:18.118Z,0.00
2018-09-05T03:33:18.039Z,0.00
2018-09-05T03:34:18.025Z,0.00
2018-09-05T03:35:18.037Z,0.00
2018-09-05T03:36:18.004Z,0.00
2018-09-05T03:37:17.994Z,0.00
2018-09-05T03:38:17.981Z,0.00
2018-09-05T03:39:17.990Z,0.00
2018-09-05T03:40:17.958Z,0.00
2018-09-05T03:41:17.968Z,0.00
2018-09-05T03:42:17.935Z,0.00
2018-09-05T03:43:17.925Z,0.00
2018-09-05T03:44:17.912Z,0.00
2018-09-05T03:45:17.906Z,0.00
2018-09-05T03:46:17.912Z,0.00
2018-09-05T03:47:17.879Z,0.00
2018-09-05T03:48:17.868Z,0.00
2018-09-05T03:49:17.902Z,0.00
2018-09-05T03:50:17.851Z,0.00
2018-09-05T03:51:17.856Z,0.00
2018-09-05T03:52:17.823Z,0.00
2018-09-05T03:53:17.814Z,0.00
2018-09-05T03:54:17.801Z,0.00
2018-09-05T03:55:17.789Z,0.00
2018-09-05T03:56:17.799Z,0.00
2018-09-05T03:57:17.787Z,0.00
2018-09-05T03:58:17.795Z,0.00
2018-09-05T03:59:17.743Z,0.00
2018-09-05T04:00:17.739Z,0.00
2018-09-05T04:01:17.720Z,0.00
2018-09-05T04:02:17.740Z,0.00
2018-09-05T04:03:17.698Z,0.00
2018-09-05T04:04:17.688Z,0.00
2018-09-05T04:05:17.674Z,0.00
2018-09-05T04:06:17.671Z,0.00
2018-09-05T04:07:17.673Z,0.00
2018-09-05T04:08:17.672Z,4.00
2018-09-05T04:09:17.630Z,0.00
2018-09-05T04:10:17.618Z,0.00
2018-09-05T04:11:17.607Z,4.00
2018-09-05T04:12:17.664Z,0.00
2018-09-05T04:13:17.610Z,4.00
2018-09-05T04:14:17.602Z,4.00
2018-09-05T04:15:17.568Z,4.00
2018-09-05T04:16:17.551Z,8.00
2018-09-05T04:17:17.557Z,8.00
2018-09-05T04:18:17.527Z,8.00
2018-09-05T04:19:17.538Z,8.00
2018-09-05T04:20:17.509Z,12.00
2018-09-05T04:21:17.493Z,12.00
2018-09-05T04:22:17.490Z,12.00
2018-09-05T04:23:17.495Z,16.00
2018-09-05T04:24:17.460Z,20.00
2018-09-05T04:25:17.448Z,20.00
2018-09-05T04:26:17.439Z,24.00
2018-09-05T04:27:17.427Z,28.00
2018-09-05T04:28:17.429Z,28.00
2018-09-05T04:29:17.438Z,32.00
2018-09-05T04:30:17.427Z,40.00
2018-09-05T04:31:17.407Z,44.00
2018-09-05T04:32:17.409Z,48.00
2018-09-05T04:33:17.363Z,56.00
2018-09-05T04:34:17.348Z,64.00
2018-09-05T04:35:17.336Z,68.00
2018-09-05T04:36:17.325Z,80.00
2018-09-05T04:37:17.334Z,84.00
2018-09-05T04:38:17.303Z,92.00
2018-09-05T04:39:17.312Z,100.00
2018-09-05T04:40:17.280Z,108.00
2018-09-05T04:41:17.269Z,120.00
2018-09-05T04:42:17.257Z,132.00
2018-09-05T04:43:17.246Z,140.00
2018-09-05T04:44:17.309Z,152.00
2018-09-05T04:45:17.313Z,160.00
2018-09-05T04:46:17.212Z,176.00
2018-09-05T04:47:17.205Z,188.00
2018-09-05T04:48:17.212Z,204.00
2018-09-05T04:49:17.245Z,216.00
2018-09-05T04:50:17.167Z,228.00
2018-09-05T04:51:17.176Z,244.00
2018-09-05T04:52:17.143Z,256.00
2018-09-05T04:53:17.133Z,272.00
2018-09-05T04:54:17.146Z,292.00
2018-09-05T04:55:17.110Z,304.00
2018-09-05T04:56:17.138Z,324.00
2018-09-05T04:57:17.089Z,336.00
2018-09-05T04:58:17.151Z,356.00
2018-09-05T04:59:17.064Z,372.00
2018-09-05T05:00:17.054Z,392.00
2018-09-05T05:01:17.131Z,408.00
2018-09-05T05:02:17.032Z,424.00
2018-09-05T05:03:17.018Z,444.00
2018-09-05T05:04:17.011Z,464.00
2018-09-05T05:05:17.006Z,480.00
2018-09-05T05:06:17.025Z,496.00
2018-09-05T05:07:16.993Z,512.00
2018-09-05T05:08:16.964Z,532.00
2018-09-05T05:09:16.952Z,552.00
2018-09-05T05:10:16.941Z,572.00
2018-09-05T05:11:16.972Z,588.00
2018-09-05T05:12:16.918Z,604.00
2018-09-05T05:13:16.906Z,628.00
2018-09-05T05:14:16.917Z,644.00
2018-09-05T05:15:16.890Z,664.00
2018-09-05T05:16:16.873Z,684.00
2018-09-05T05:17:16.882Z,700.00
2018-09-05T05:18:16.851Z,716.00
2018-09-05T05:19:16.840Z,736.00
2018-09-05T05:20:16.830Z,756.00
2018-09-05T05:21:16.818Z,772.00
2018-09-05T05:22:16.826Z,792.00
2018-09-05T05:23:16.795Z,808.00
2018-09-05T05:24:16.783Z,828.00
2018-09-05T05:25:16.772Z,852.00
2018-09-05T05:26:16.792Z,872.00
2018-09-05T05:27:16.772Z,892.00
2018-09-05T05:28:16.738Z,908.00
2018-09-05T05:29:16.727Z,924.00
2018-09-05T05:30:16.738Z,940.00
2018-09-05T05:31:16.705Z,956.00
2018-09-05T05:32:16.700Z,972.00
2018-09-05T05:33:16.706Z,988.00
2018-09-05T05:34:16.672Z,1004.00
2018-09-05T05:35:16.686Z,1016.00
2018-09-05T05:36:16.647Z,1032.00
2018-09-05T05:37:16.673Z,1048.00
2018-09-05T05:38:16.629Z,1064.00
2018-09-05T05:39:16.612Z,1080.00
2018-09-05T05:40:16.685Z,1096.00
2018-09-05T05:41:16.591Z,1112.00
2018-09-05T05:42:16.580Z,1128.00
2018-09-05T05:43:16.569Z,1144.00
2018-09-05T05:44:16.557Z,1168.00
2018-09-05T05:45:16.567Z,1180.00
2018-09-05T05:46:16.535Z,1196.00
2018-09-05T05:47:16.524Z,1208.00
2018-09-05T05:48:16.518Z,1224.00
2018-09-05T05:49:16.523Z,1236.00
2018-09-05T05:50:16.490Z,1252.00
2018-09-05T05:51:16.480Z,1272.00
2018-09-05T05:52:16.499Z,1288.00
2018-09-05T05:53:16.460Z,1304.00
2018-09-05T05:54:16.443Z,1320.00
2018-09-05T05:55:16.437Z,1332.00
2018-09-05T05:56:16.425Z,1344.00
2018-09-05T05:57:16.434Z,1356.00
2018-09-05T05:58:16.400Z,1364.00
2018-09-05T05:59:16.393Z,1372.00
2018-09-05T06:00:16.376Z,1380.00
2018-09-05T06:01:16.477Z,1388.00
2018-09-05T06:02:16.374Z,1396.00
2018-09-05T06:03:16.341Z,1404.00
2018-09-05T06:04:16.338Z,1416.00
2018-09-05T06:05:16.325Z,1428.00
2018-09-05T06:06:16.501Z,1448.00
2018-09-05T06:07:16.318Z,1460.00
2018-09-05T06:08:16.288Z,1468.00
2018-09-05T06:09:16.278Z,1480.00
2018-09-05T06:10:16.263Z,1484.00
2018-09-05T06:11:16.251Z,1496.00
2018-09-05T06:12:16.263Z,1504.00
2018-09-05T06:13:16.229Z,1512.00
2018-09-05T06:14:16.238Z,1528.00
2018-09-05T06:15:16.207Z,1536.00
2018-09-05T06:16:16.196Z,1552.00
2018-09-05T06:17:16.183Z,1568.00
2018-09-05T06:18:16.193Z,1584.00
2018-09-05T06:19:16.161Z,1600.00
2018-09-05T06:20:16.149Z,1612.00
2018-09-05T06:21:16.140Z,1628.00
2018-09-05T06:22:16.131Z,1648.00
2018-09-05T06:23:16.150Z,1664.00
2018-09-05T06:24:16.105Z,1684.00
2018-09-05T06:25:16.093Z,1696.00
2018-09-05T06:26:16.083Z,1708.00
2018-09-05T06:27:16.070Z,1716.00
2018-09-05T06:28:16.084Z,1724.00
2018-09-05T06:29:16.048Z,1732.00
2018-09-05T06:30:16.056Z,1744.00
2018-09-05T06:31:16.101Z,1752.00
2018-09-05T06:32:16.013Z,1760.00
2018-09-05T06:33:16.004Z,1768.00
2018-09-05T06:34:16.050Z,1776.00
2018-09-05T06:35:16.006Z,1784.00
2018-09-05T06:36:15.971Z,1800.00
2018-09-05T06:37:15.959Z,1812.00
2018-09-05T06:38:15.948Z,1824.00
2018-09-05T06:39:15.935Z,1832.00
2018-09-05T06:40:15.948Z,1840.00
2018-09-05T06:41:15.914Z,1844.00
2018-09-05T06:42:15.902Z,1852.00
2018-09-05T06:43:15.892Z,1860.00
2018-09-05T06:44:15.905Z,1868.00
2018-09-05T06:45:15.877Z,1872.00
2018-09-05T06:46:15.865Z,1884.00
2018-09-05T06:47:15.881Z,1888.00
2018-09-05T06:48:15.837Z,1900.00
2018-09-05T06:49:15.823Z,1908.00
2018-09-05T06:50:15.848Z,1916.00
2018-09-05T06:51:15.845Z,1924.00
2018-09-05T06:52:15.791Z,1932.00
2018-09-05T06:53:15.778Z,1940.00
2018-09-05T06:54:15.766Z,1952.00
2018-09-05T06:55:15.780Z,1960.00
2018-09-05T06:56:15.749Z,1980.00
2018-09-05T06:57:15.738Z,2000.00
2018-09-05T06:58:15.785Z,2024.00
2018-09-05T06:59:15.711Z,2048.00
2018-09-05T07:00:15.703Z,2076.00
2018-09-05T07:01:15.690Z,2108.00
2018-09-05T07:02:15.698Z,2144.00
2018-09-05T07:03:15.668Z,2180.00
2018-09-05T07:04:15.666Z,2220.00
2018-09-05T07:05:15.643Z,2256.00
2018-09-05T07:06:15.632Z,2300.00
2018-09-05T07:07:15.642Z,2344.00
2018-09-05T07:08:15.611Z,2384.00
2018-09-05T07:09:15.622Z,2420.00
2018-09-05T07:10:15.587Z,2456.00
2018-09-05T07:11:15.578Z,2484.00
2018-09-05T07:12:15.564Z,2512.00
2018-09-05T07:13:15.554Z,2552.00
2018-09-05T07:14:15.653Z,2592.00
2018-09-05T07:15:15.531Z,2628.00
2018-09-05T07:16:15.521Z,2664.00
2018-09-05T07:17:15.510Z,2692.00
2018-09-05T07:18:15.498Z,2732.00
2018-09-05T07:19:15.507Z,2768.00
2018-09-05T07:20:15.475Z,2800.00
2018-09-05T07:21:15.480Z,2824.00
2018-09-05T07:22:15.454Z,2860.00
2018-09-05T07:23:15.463Z,2880.00
2018-09-05T07:24:15.429Z,2912.00
2018-09-05T07:25:15.418Z,2940.00
2018-09-05T07:26:15.421Z,2960.00
2018-09-05T07:27:15.416Z,2984.00
2018-09-05T07:28:15.386Z,3016.00
2018-09-05T07:29:15.373Z,3048.00
2018-09-05T07:30:15.392Z,3068.00
2018-09-05T07:31:15.350Z,3092.00
2018-09-05T07:32:15.342Z,3124.00
2018-09-05T07:33:15.342Z,3144.00
2018-09-05T07:34:15.317Z,3152.00
2018-09-05T07:35:15.306Z,3180.00
2018-09-05T07:36:15.337Z,3204.00
2018-09-05T07:37:15.283Z,3216.00
2018-09-05T07:38:15.292Z,3224.00
2018-09-05T07:39:15.261Z,3236.00
2018-09-05T07:40:15.250Z,3256.00
2018-09-05T07:41:15.237Z,3272.00
2018-09-05T07:42:15.249Z,3280.00
2018-09-05T07:43:15.216Z,3292.00
2018-09-05T07:44:15.204Z,3300.00
2018-09-05T07:45:15.216Z,3304.00
2018-09-05T07:46:15.182Z,3316.00
2018-09-05T07:47:15.193Z,3328.00
2018-09-05T07:48:15.158Z,3340.00
2018-09-05T07:49:15.152Z,3364.00
2018-09-05T07:50:15.158Z,3372.00
2018-09-05T07:51:15.132Z,3376.00
2018-09-05T07:52:15.115Z,3376.00
2018-09-05T07:53:15.103Z,3388.00
2018-09-05T07:54:15.114Z,3396.00
2018-09-05T07:55:15.081Z,3408.00
2018-09-05T07:56:15.070Z,3412.00
2018-09-05T07:57:15.076Z,3412.00
2018-09-05T07:58:15.069Z,3424.00
2018-09-05T07:59:15.062Z,3436.00
2018-09-05T08:00:15.025Z,3440.00
2018-09-05T08:01:15.014Z,3448.00
2018-09-05T08:02:15.006Z,3452.00
2018-09-05T08:03:15.016Z,3472.00
2018-09-05T08:04:15.002Z,3484.00
2018-09-05T08:05:14.973Z,3488.00
2018-09-05T08:06:14.961Z,3496.00
2018-09-05T08:07:14.950Z,3500.00
2018-09-05T08:08:14.940Z,3520.00
2018-09-05T08:09:14.956Z,3536.00
2018-09-05T08:10:14.915Z,3544.00
2018-09-05T08:11:14.905Z,3548.00
2018-09-05T08:12:14.896Z,3560.00
2018-09-05T08:13:14.888Z,3572.00
2018-09-05T08:14:14.990Z,3588.00
2018-09-05T08:15:14.862Z,3604.00
2018-09-05T08:16:14.850Z,3636.00
2018-09-05T08:17:14.839Z,3672.00
2018-09-05T08:18:14.870Z,3700.00
2018-09-05T08:19:14.856Z,3716.00
2018-09-05T08:20:14.807Z,3728.00
2018-09-05T08:21:14.796Z,3748.00
2018-09-05T08:22:14.785Z,3760.00
2018-09-05T08:23:14.779Z,3780.00
2018-09-05T08:24:14.871Z,3812.00
2018-09-05T08:25:14.755Z,3820.00
2018-09-05T08:26:14.741Z,3824.00
2018-09-05T08:27:14.733Z,3836.00
2018-09-05T08:28:14.717Z,3864.00
2018-09-05T08:29:14.765Z,3896.00
2018-09-05T08:30:14.695Z,3920.00
2018-09-05T08:31:14.683Z,3952.00
2018-09-05T08:32:14.672Z,3956.00
2018-09-05T08:33:14.660Z,3976.00
2018-09-05T08:34:14.689Z,3996.00
2018-09-05T08:35:14.784Z,4004.00
2018-09-05T08:36:14.927Z,4000.00
2018-09-05T08:37:14.709Z,4008.00
2018-09-05T08:38:14.650Z,4032.00
2018-09-05T08:39:14.619Z,4044.00
2018-09-05T08:40:14.597Z,4056.00
2018-09-05T08:41:14.609Z,4064.00
2018-09-05T08:42:14.644Z,4076.00
2018-09-05T08:43:14.551Z,4088.00
2018-09-05T08:44:14.781Z,4104.00
2018-09-05T08:45:14.766Z,4124.00
2018-09-05T08:46:14.595Z,4140.00
2018-09-05T08:47:14.563Z,4160.00
2018-09-05T08:48:14.590Z,4168.00
2018-09-05T08:49:14.489Z,4172.00
2018-09-05T08:50:14.532Z,4172.00
2018-09-05T08:51:14.463Z,4180.00
2018-09-05T08:52:14.477Z,4192.00
2018-09-05T08:53:14.478Z,4204.00
2018-09-05T08:54:14.429Z,4216.00
2018-09-05T08:55:14.543Z,4232.00
2018-09-05T08:56:14.435Z,4236.00
2018-09-05T08:57:14.419Z,4240.00
2018-09-05T08:58:14.507Z,4256.00
2018-09-05T08:59:14.373Z,4276.00
2018-09-05T09:00:14.363Z,4284.00
2018-09-05T09:01:14.351Z,4296.00
2018-09-05T09:02:21.143Z,4304.00
2018-09-05T09:03:21.163Z,4300.00
2018-09-05T09:04:21.121Z,4304.00
2018-09-05T09:05:21.111Z,4300.00
2018-09-05T09:06:21.101Z,4308.00
2018-09-05T09:07:21.110Z,4316.00
2018-09-05T09:08:21.077Z,4328.00
2018-09-05T09:09:21.066Z,4336.00
2018-09-05T09:10:21.055Z,4340.00
2018-09-05T09:11:21.044Z,4352.00
2018-09-05T09:12:21.055Z,4360.00
2018-09-05T09:13:21.042Z,4356.00
2018-09-05T09:14:21.010Z,4356.00
2018-09-05T09:15:20.998Z,4352.00
2018-09-05T09:16:20.989Z,4348.00
2018-09-05T09:17:21.010Z,4364.00
2018-09-05T09:18:20.966Z,4368.00
2018-09-05T09:19:20.956Z,4376.00
2018-09-05T09:20:20.944Z,4396.00
2018-09-05T09:21:20.933Z,4396.00
2018-09-05T09:22:20.944Z,4392.00
2018-09-05T09:23:20.949Z,4396.00
2018-09-05T09:24:20.898Z,4404.00
2018-09-05T09:25:20.896Z,4408.00
2018-09-05T09:26:20.877Z,4416.00
2018-09-05T09:27:20.867Z,4424.00
2018-09-05T09:28:20.978Z,4432.00
2018-09-05T09:29:20.843Z,4436.00
2018-09-05T09:30:20.832Z,4440.00
2018-09-05T09:31:20.825Z,4448.00
2018-09-05T09:32:20.811Z,4448.00
2018-09-05T09:33:20.824Z,4428.00
2018-09-05T09:34:20.812Z,4360.00
2018-09-05T09:35:20.847Z,4280.00
2018-09-05T09:36:20.768Z,4128.00
2018-09-05T09:37:20.754Z,4132.00
2018-09-05T09:38:20.743Z,4292.00
2018-09-05T09:39:20.754Z,4368.00
2018-09-05T09:40:20.721Z,4400.00
2018-09-05T09:41:20.709Z,4472.00
2018-09-05T09:42:20.699Z,4480.00
2018-09-05T09:43:20.688Z,4512.00
2018-09-05T09:44:20.699Z,4536.00
2018-09-05T09:45:20.666Z,4556.00
2018-09-05T09:46:20.678Z,4564.00
2018-09-05T09:47:20.646Z,4556.00
2018-09-05T09:48:20.633Z,4552.00
2018-09-05T09:49:20.646Z,4540.00
2018-09-05T09:50:20.612Z,4536.00
2018-09-05T09:51:20.623Z,4544.00
2018-09-05T09:52:20.590Z,4572.00
2018-09-05T09:53:20.614Z,4564.00
2018-09-05T09:54:20.568Z,4564.00
2018-09-05T09:55:20.557Z,4568.00
2018-09-05T09:56:20.546Z,4556.00
2018-09-05T09:57:20.535Z,4560.00
2018-09-05T09:58:20.571Z,4608.00
2018-09-05T09:59:20.517Z,4640.00
2018-09-05T10:00:20.501Z,4628.00
2018-09-05T10:01:20.491Z,4632.00
2018-09-05T10:02:20.482Z,4628.00
2018-09-05T10:03:20.629Z,4680.00
2018-09-05T10:04:20.459Z,4704.00
2018-09-05T10:05:20.447Z,4716.00
2018-09-05T10:06:20.459Z,4700.00
2018-09-05T10:07:20.493Z,4664.00
2018-09-05T10:08:20.417Z,4632.00
2018-09-05T10:09:20.444Z,4616.00
2018-09-05T10:10:20.663Z,4608.00
2018-09-05T10:11:20.404Z,4604.00
2018-09-05T10:12:20.371Z,4604.00
2018-09-05T10:13:20.362Z,4616.00
2018-09-05T10:14:20.370Z,4640.00
2018-09-05T10:15:20.371Z,4652.00
2018-09-05T10:16:20.326Z,4636.00
2018-09-05T10:17:20.314Z,4624.00
2018-09-05T10:18:20.330Z,4612.00
2018-09-05T10:19:20.318Z,4608.00
2018-09-05T10:20:20.283Z,4600.00
2018-09-05T10:21:20.272Z,4616.00
2018-09-05T10:22:20.260Z,4656.00
2018-09-05T10:23:20.574Z,4660.00
2018-09-05T10:24:20.261Z,4696.00
2018-09-05T10:25:20.229Z,4788.00
2018-09-05T10:26:20.215Z,4856.00
2018-09-05T10:27:20.207Z,4932.00
2018-09-05T10:28:20.195Z,4920.00
2018-09-05T10:29:20.205Z,4932.00
2018-09-05T10:30:20.175Z,4948.00
2018-09-05T10:31:20.305Z,4964.00
2018-09-05T10:32:20.150Z,5016.00
2018-09-05T10:33:20.230Z,5088.00
2018-09-05T10:34:20.153Z,5180.00
2018-09-05T10:35:20.139Z,2976.00
2018-09-05T10:36:20.126Z,2964.00
2018-09-05T10:37:20.095Z,3160.00
2018-09-05T10:38:20.084Z,3424.00
2018-09-05T10:39:20.077Z,4000.00
2018-09-05T10:40:20.095Z,4148.00
2018-09-05T10:41:20.054Z,4556.00
2018-09-05T10:42:20.042Z,4104.00
2018-09-05T10:43:20.028Z,4728.00
2018-09-05T10:44:20.104Z,4744.00
2018-09-05T10:45:20.029Z,4776.00
2018-09-05T10:46:19.999Z,4760.00
2018-09-05T10:47:19.985Z,4796.00
2018-09-05T10:48:19.978Z,4788.00
2018-09-05T10:49:19.994Z,4752.00
2018-09-05T10:50:19.956Z,4764.00
2018-09-05T10:51:19.962Z,4756.00
2018-09-05T10:52:20.013Z,4708.00
2018-09-05T10:53:19.921Z,4644.00
2018-09-05T10:54:19.933Z,4536.00
2018-09-05T10:55:19.903Z,4696.00
2018-09-05T10:56:19.894Z,4624.00
2018-09-05T10:57:19.897Z,4500.00
2018-09-05T10:58:19.918Z,4752.00
2018-09-05T10:59:19.855Z,4824.00
2018-09-05T11:00:19.844Z,4856.00
2018-09-05T11:01:19.836Z,4900.00
2018-09-05T11:02:19.822Z,4972.00
2018-09-05T11:03:19.835Z,4972.00
2018-09-05T11:04:19.855Z,4968.00
2018-09-05T11:05:19.789Z,4920.00
2018-09-05T11:06:19.778Z,4644.00
2018-09-05T11:07:19.778Z,4648.00
2018-09-05T11:08:19.797Z,4768.00
2018-09-05T11:09:19.748Z,4892.00
2018-09-05T11:10:19.797Z,5012.00
2018-09-05T11:11:19.728Z,5036.00
2018-09-05T11:12:19.713Z,5076.00
2018-09-05T11:13:19.726Z,5100.00
2018-09-05T11:14:19.694Z,5120.00
2018-09-05T11:15:19.681Z,5120.00
2018-09-05T11:16:19.670Z,5036.00
2018-09-05T11:17:19.700Z,5064.00
2018-09-05T11:18:19.696Z,5036.00
2018-09-05T11:19:19.639Z,4968.00
2018-09-05T11:20:19.627Z,4976.00
2018-09-05T11:21:19.620Z,4968.00
2018-09-05T11:22:19.637Z,5020.00
2018-09-05T11:23:19.627Z,4996.00
2018-09-05T11:24:19.584Z,4968.00
2018-09-05T11:25:19.587Z,4968.00
2018-09-05T11:26:19.562Z,4968.00
2018-09-05T11:27:19.573Z,4964.00
2018-09-05T11:28:19.541Z,5028.00
2018-09-05T11:29:19.529Z,5096.00
2018-09-05T11:30:19.541Z,5164.00
2018-09-05T11:31:19.509Z,5184.00
2018-09-05T11:32:19.497Z,5168.00
2018-09-05T11:33:19.491Z,5204.00
2018-09-05T11:34:19.477Z,5248.00
2018-09-05T11:35:19.487Z,5224.00
2018-09-05T11:36:19.454Z,5232.00
2018-09-05T11:37:19.443Z,5328.00
2018-09-05T11:38:19.432Z,5368.00
2018-09-05T11:39:19.421Z,5388.00
2018-09-05T11:40:19.435Z,5436.00
2018-09-05T11:41:19.399Z,5492.00
2018-09-05T11:42:19.390Z,5568.00
2018-09-05T11:43:19.378Z,5608.00
2018-09-05T11:44:19.369Z,5608.00
2018-09-05T11:45:19.377Z,5580.00
2018-09-05T11:46:19.346Z,5552.00
2018-09-05T11:47:19.356Z,5504.00
2018-09-05T11:48:19.324Z,5476.00
2018-09-05T11:49:19.313Z,3700.00
2018-09-05T11:50:19.333Z,4224.00
2018-09-05T11:51:19.300Z,2904.00
2018-09-05T11:52:19.281Z,4904.00
2018-09-05T11:53:19.270Z,5176.00
2018-09-05T11:54:19.260Z,4048.00
2018-09-05T11:55:19.272Z,2888.00
2018-09-05T11:56:19.237Z,2720.00
2018-09-05T11:57:19.238Z,2596.00
2018-09-05T11:58:19.216Z,2808.00
2018-09-05T11:59:19.204Z,4988.00
2018-09-05T12:00:19.217Z,4796.00
2018-09-05T12:01:19.183Z,2988.00
2018-09-05T12:02:19.276Z,3188.00
2018-09-05T12:03:19.163Z,3240.00
2018-09-05T12:04:19.159Z,4564.00
2018-09-05T12:05:19.142Z,5736.00
2018-09-05T12:06:19.129Z,3176.00
2018-09-05T12:07:19.140Z,3108.00
2018-09-05T12:08:19.107Z,3220.00
2018-09-05T12:09:19.116Z,5364.00
2018-09-05T12:10:19.108Z,3644.00
2018-09-05T12:11:19.079Z,5208.00
2018-09-05T12:12:19.117Z,4200.00
2018-09-05T12:13:19.053Z,5564.00
2018-09-05T12:14:19.043Z,5584.00
2018-09-05T12:15:19.058Z,5596.00
2018-09-05T12:16:19.047Z,5668.00
2018-09-05T12:17:19.009Z,5480.00
2018-09-05T12:18:19.020Z,5696.00
2018-09-05T12:19:18.990Z,5688.00
2018-09-05T12:20:18.977Z,5608.00
2018-09-05T12:21:18.987Z,5348.00
2018-09-05T12:22:18.956Z,5208.00
2018-09-05T12:23:18.943Z,5424.00
2018-09-05T12:24:18.935Z,5436.00
2018-09-05T12:25:18.945Z,5452.00
2018-09-05T12:26:18.915Z,5556.00
2018-09-05T12:27:18.901Z,5652.00
2018-09-05T12:28:18.915Z,5780.00
2018-09-05T12:29:18.881Z,5676.00
2018-09-05T12:30:18.890Z,5648.00
2018-09-05T12:31:18.858Z,5676.00
2018-09-05T12:32:18.846Z,5720.00